Time;durP1;ratioP1;P1;durP2;ratioP2;P2;SDS_P1;SDS_P2;PMS_P1;PMS_P2;Temp;Humidity;BMP_temperature;BMP_pressure;BME280_temperature;BME280_humidity;BME280_pressure;Samples;Min_cycle;Max_cycle;Signal;HPM_P1;HPM_P2
2023/06/09 00:01:44;;;;;;;5.65;3.35;;;;;;;13.40;86.13;96222.72;5035343;28;20454;-62
2023/06/09 00:04:13;;;;;;;4.80;3.63;;;;;;;13.44;85.79;96228.63;5035374;28;20071;-62
2023/06/09 00:06:41;;;;;;;5.15;3.50;;;;;;;13.50;85.47;96225.69;5035155;28;20052;-61
2023/06/09 00:09:08;;;;;;;4.18;3.58;;;;;;;13.54;85.11;96231.66;5035230;28;20474;-61
2023/06/09 00:11:35;;;;;;;5.70;3.53;;;;;;;13.59;84.49;96230.44;5035099;28;20042;-62
2023/06/09 00:14:03;;;;;;;6.82;3.55;;;;;;;13.60;84.48;96240.03;5035102;28;20480;-61
2023/06/09 00:16:30;;;;;;;4.40;3.47;;;;;;;13.60;84.15;96229.50;5034958;28;20075;-61
2023/06/09 00:19:01;;;;;;;4.97;3.08;;;;;;;13.60;84.05;96221.63;5035064;28;20049;-61
2023/06/09 00:21:29;;;;;;;5.95;3.53;;;;;;;13.60;84.11;96216.38;5034969;28;20053;-60
2023/06/09 00:23:57;;;;;;;4.80;3.45;;;;;;;13.61;84.28;96220.69;5034873;28;20042;-62
2023/06/09 00:26:24;;;;;;;4.28;3.78;;;;;;;13.63;84.30;96217.97;5034925;28;20076;-62
2023/06/09 00:28:51;;;;;;;6.55;4.03;;;;;;;13.53;84.48;96215.03;5034869;28;20085;-61
2023/06/09 00:31:19;;;;;;;4.13;3.33;;;;;;;13.55;84.52;96217.56;5034766;28;20049;-60
2023/06/09 00:33:46;;;;;;;6.90;3.80;;;;;;;13.57;84.16;96215.72;5034634;28;20108;-62
2023/06/09 00:36:14;;;;;;;5.32;3.92;;;;;;;13.56;84.20;96214.00;5034561;28;20056;-61
2023/06/09 00:38:41;;;;;;;5.60;3.60;;;;;;;13.55;84.53;96222.81;5034656;28;20045;-61
2023/06/09 00:41:08;;;;;;;6.55;3.50;;;;;;;13.57;84.82;96224.41;5034386;28;20053;-61
2023/06/09 00:43:35;;;;;;;3.85;3.38;;;;;;;13.58;84.56;96220.03;5034649;28;20083;-61
2023/06/09 00:46:05;;;;;;;7.65;3.67;;;;;;;13.62;84.63;96224.16;5034509;28;20481;-61
2023/06/09 00:48:36;;;;;;;4.80;3.63;;;;;;;13.62;84.33;96213.66;5034350;28;20045;-61
2023/06/09 00:51:05;;;;;;;9.70;3.42;;;;;;;13.56;84.17;96214.84;5034513;28;20449;-61
2023/06/09 00:53:32;;;;;;;3.55;2.97;;;;;;;13.56;84.04;96216.63;5034229;28;20057;-61
2023/06/09 00:55:59;;;;;;;4.15;3.53;;;;;;;13.57;83.92;96215.72;5034312;28;20045;-61
2023/06/09 00:58:26;;;;;;;4.28;3.88;;;;;;;13.58;83.69;96215.59;5034298;28;20053;-61
2023/06/09 01:00:53;;;;;;;9.32;3.58;;;;;;;13.59;83.30;96225.19;5034088;28;20049;-61
2023/06/09 01:03:21;;;;;;;7.30;3.05;;;;;;;13.61;83.10;96227.75;5034190;28;20041;-61
2023/06/09 01:05:56;;;;;;;4.32;3.35;;;;;;;13.55;82.98;96222.81;5034066;28;20141;-61
2023/06/09 01:08:30;;;;;;;3.22;2.92;;;;;;;13.52;83.14;96223.84;5033532;28;20049;-61
2023/06/09 01:11:01;;;;;;;5.45;3.55;;;;;;;13.43;83.17;96214.66;5033918;28;20451;-61
2023/06/09 01:13:38;;;;;;;5.70;3.40;;;;;;;13.37;83.71;96221.06;5033916;28;20573;-62
2023/06/09 01:16:14;;;;;;;5.03;3.50;;;;;;;13.35;83.81;96222.09;5033889;28;20518;-61
2023/06/09 01:18:44;;;;;;;6.47;3.90;;;;;;;13.35;83.88;96211.59;5033925;28;20053;-61
2023/06/09 01:21:23;;;;;;;6.13;3.38;;;;;;;13.30;83.69;96211.00;5033772;28;20250;-60
2023/06/09 01:24:09;;;;;;;3.80;3.40;;;;;;;13.26;83.72;96212.94;5033926;28;20049;-59
2023/06/09 01:26:40;;;;;;;6.70;3.40;;;;;;;13.20;83.74;96219.38;5033701;28;20053;-61
2023/06/09 01:29:07;;;;;;;;;;;;;;;13.17;83.77;96206.41;5034124;28;20487;-61
2023/06/09 01:31:37;;;;;;;5.90;3.58;;;;;;;13.12;84.41;96206.66;5033647;28;19928;-60
2023/06/09 01:34:06;;;;;;;7.18;3.38;;;;;;;13.07;84.33;96211.31;5033210;28;20049;-62
2023/06/09 01:36:34;;;;;;;6.65;3.95;;;;;;;13.07;84.30;96208.69;5033464;28;20518;-61
2023/06/09 01:39:01;;;;;;;4.32;3.60;;;;;;;13.06;84.11;96211.41;5033527;28;20049;-61
2023/06/09 01:41:28;;;;;;;4.25;3.63;;;;;;;13.07;83.88;96207.84;5033437;28;20454;-61
2023/06/09 01:43:57;;;;;;;6.68;4.30;;;;;;;13.10;83.36;96205.88;5033338;28;20041;-61
2023/06/09 01:46:24;;;;;;;4.10;3.42;;;;;;;13.06;83.23;96200.88;5033443;28;20053;-61
2023/06/09 01:49:05;;;;;;;4.57;3.60;;;;;;;12.97;83.38;96200.44;5033494;28;20144;-62
2023/06/09 01:51:42;;;;;;;5.05;3.35;;;;;;;12.91;83.61;96207.81;5033342;28;20106;-62
2023/06/09 01:54:12;;;;;;;6.18;3.63;;;;;;;12.91;83.61;96205.19;5033324;28;20100;-62
2023/06/09 01:56:44;;;;;;;5.95;3.58;;;;;;;12.88;83.21;96216.66;5033219;28;20049;-61
2023/06/09 01:59:19;;;;;;;4.60;3.72;;;;;;;12.85;82.86;96204.56;5033304;28;20052;-62
2023/06/09 02:01:49;;;;;;;5.00;3.90;;;;;;;12.80;83.05;96203.97;5033108;28;20384;-61
2023/06/09 02:04:17;;;;;;;8.18;4.07;;;;;;;12.79;82.84;96202.25;5033145;28;20053;-61
2023/06/09 02:06:45;;;;;;;5.75;3.83;;;;;;;12.72;82.91;96200.88;5033164;28;20052;-61
2023/06/09 02:09:12;;;;;;;3.67;3.38;;;;;;;12.67;82.39;96205.53;5033038;28;20041;-61
2023/06/09 02:11:40;;;;;;;4.75;3.53;;;;;;;12.58;82.34;96199.81;5033139;28;20045;-61
2023/06/09 02:14:07;;;;;;;4.82;3.40;;;;;;;12.50;82.32;96209.88;5033026;28;20103;-61
2023/06/09 02:16:36;;;;;;;6.15;3.42;;;;;;;12.48;82.21;96211.72;5033016;28;20136;-61
2023/06/09 02:19:04;;;;;;;5.60;3.33;;;;;;;12.49;81.92;96209.00;5033412;28;20045;-60
2023/06/09 02:21:31;;;;;;;7.25;3.50;;;;;;;12.50;81.74;96207.25;5037109;28;20045;-61
2023/06/09 02:23:58;;;;;;;5.38;3.80;;;;;;;12.45;81.19;96212.72;5037145;28;20068;-61
2023/06/09 02:26:25;;;;;;;9.55;3.70;;;;;;;12.41;82.10;96212.94;5036981;28;20047;-62
2023/06/09 02:28:52;;;;;;;5.70;3.85;;;;;;;12.32;81.87;96209.88;5037111;28;20125;-62
2023/06/09 02:31:20;;;;;;;4.57;3.45;;;;;;;12.24;82.08;96206.78;5037014;28;20050;-61
2023/06/09 02:33:48;;;;;;;5.05;3.88;;;;;;;12.18;82.08;96207.94;5036925;28;20045;-61
2023/06/09 02:36:16;;;;;;;4.13;3.75;;;;;;;12.15;82.02;96209.84;5036975;28;20043;-61
2023/06/09 02:38:43;;;;;;;6.05;3.78;;;;;;;12.16;81.97;96219.44;5036890;28;20139;-61
2023/06/09 02:41:10;;;;;;;4.78;3.50;;;;;;;12.18;81.99;96217.56;5036765;28;20049;-61
2023/06/09 02:43:37;;;;;;;5.82;4.00;;;;;;;12.20;81.49;96213.97;5036722;28;20478;-61
2023/06/09 02:46:04;;;;;;;5.00;3.38;;;;;;;12.16;81.13;96214.19;5036694;28;20506;-62
2023/06/09 02:48:31;;;;;;;8.65;4.07;;;;;;;12.12;80.93;96218.72;5036547;28;20136;-61
2023/06/09 02:51:00;;;;;;;6.97;3.70;;;;;;;12.12;81.91;96222.22;5036771;28;20060;-61
2023/06/09 02:53:28;;;;;;;4.80;4.10;;;;;;;12.14;82.03;96222.13;5036626;28;20045;-62
2023/06/09 02:55:55;;;;;;;7.45;4.35;;;;;;;12.10;81.87;96223.22;5036597;28;20104;-61
2023/06/09 02:58:24;;;;;;;4.88;3.53;;;;;;;12.04;81.65;96226.09;5036456;28;20136;-61
2023/06/09 03:00:51;;;;;;;7.88;4.00;;;;;;;12.03;82.39;96222.63;5036691;28;20049;-61
2023/06/09 03:03:18;;;;;;;9.77;3.67;;;;;;;12.05;82.43;96230.41;5036402;28;20073;-61
2023/06/09 03:05:45;;;;;;;6.55;3.72;;;;;;;12.07;82.32;96228.59;5036407;28;20107;-62
2023/06/09 03:08:14;;;;;;;8.90;3.78;;;;;;;11.98;82.79;96233.31;5036288;28;20046;-61
2023/06/09 03:10:41;;;;;;;4.93;3.85;;;;;;;11.99;81.96;96231.56;5036493;28;20107;-61
2023/06/09 03:13:08;;;;;;;4.38;3.85;;;;;;;12.00;81.71;96233.25;5036314;28;20163;-61
2023/06/09 03:15:35;;;;;;;5.07;3.35;;;;;;;12.03;82.28;96225.25;5036090;28;20115;-60
2023/06/09 03:18:02;;;;;;;4.65;3.55;;;;;;;12.06;82.13;96227.72;5036010;28;20083;-61
2023/06/09 03:20:29;;;;;;;5.05;3.88;;;;;;;12.03;82.36;96225.25;5036102;28;20111;-61
2023/06/09 03:22:58;;;;;;;6.05;3.80;;;;;;;12.01;82.89;96230.56;5036560;28;20069;-62
2023/06/09 03:25:27;;;;;;;4.88;3.08;;;;;;;12.05;83.13;96243.53;5035913;28;20526;-61
2023/06/09 03:27:54;;;;;;;4.75;3.60;;;;;;;12.12;83.58;96242.31;5035979;28;20071;-61
2023/06/09 03:30:21;;;;;;;5.13;3.63;;;;;;;12.30;84.31;96232.69;5035652;28;20149;-61
2023/06/09 03:32:48;;;;;;;4.13;3.72;;;;;;;12.57;82.88;96236.63;5035969;28;20048;-61
2023/06/09 03:35:16;;;;;;;4.50;3.47;;;;;;;12.86;82.38;96234.28;5035845;28;20049;-60
2023/06/09 03:37:43;;;;;;;4.25;3.10;;;;;;;13.23;81.04;96231.47;5035766;28;20049;-61
2023/06/09 03:40:12;;;;;;;4.50;3.13;;;;;;;13.57;78.30;96227.06;5035760;28;20049;-62
2023/06/09 03:42:40;;;;;;;3.17;2.88;;;;;;;13.97;77.51;96228.41;5035625;28;20053;-61
2023/06/09 03:45:08;;;;;;;6.60;3.58;;;;;;;14.37;75.21;96226.09;5035588;28;20092;-62
2023/06/09 03:47:35;;;;;;;3.45;2.40;;;;;;;14.82;73.19;96227.91;5035578;28;20049;-61
2023/06/09 03:50:03;;;;;;;2.92;2.63;;;;;;;15.21;70.73;96225.56;5035789;28;20051;-61
2023/06/09 03:52:30;;;;;;;4.40;2.58;;;;;;;15.64;69.78;96229.06;5035591;28;20136;-62
2023/06/09 03:54:57;;;;;;;5.90;2.88;;;;;;;16.08;67.84;96229.84;5035474;28;20046;-62
2023/06/09 03:57:24;;;;;;;4.82;2.50;;;;;;;16.53;66.69;96231.31;5035351;28;20060;-62
2023/06/09 03:59:53;;;;;;;2.90;2.30;;;;;;;16.98;65.41;96236.19;5035289;28;20487;-62
2023/06/09 04:02:20;;;;;;;4.43;2.20;;;;;;;17.43;63.17;96248.16;5035310;28;20049;-61
2023/06/09 04:04:47;;;;;;;4.03;2.53;;;;;;;17.76;62.47;96248.50;5035444;28;20091;-62
2023/06/09 04:07:14;;;;;;;3.10;2.65;;;;;;;18.10;61.06;96246.09;5035207;28;20045;-61
2023/06/09 04:09:42;;;;;;;3.42;2.50;;;;;;;18.42;60.21;96248.13;5035172;28;20049;-62
2023/06/09 04:12:10;;;;;;;4.38;2.60;;;;;;;18.71;59.61;96248.69;5035165;28;20492;-61
2023/06/09 04:14:37;;;;;;;3.40;2.80;;;;;;;19.03;59.08;96248.88;5035098;28;20135;-62
2023/06/09 04:17:06;;;;;;;3.58;2.40;;;;;;;19.31;57.86;96254.75;5035045;28;20049;-62
2023/06/09 04:19:33;;;;;;;3.75;3.30;;;;;;;19.50;57.09;96252.47;5035034;28;20049;-61
2023/06/09 04:22:07;;;;;;;4.35;2.92;;;;;;;19.76;56.76;96245.06;5035021;28;20104;-62
2023/06/09 04:24:34;;;;;;;2.97;2.13;;;;;;;19.89;56.34;96255.53;5035054;28;20103;-62
2023/06/09 04:27:03;;;;;;;3.88;2.70;;;;;;;20.11;56.11;96251.19;5034963;28;20046;-62
2023/06/09 04:29:31;;;;;;;9.52;2.53;;;;;;;20.25;56.03;96254.50;5034841;28;20553;-62
2023/06/09 04:31:59;;;;;;;3.85;2.55;;;;;;;20.46;55.96;96251.88;5034872;28;20061;-62
2023/06/09 04:34:29;;;;;;;2.35;2.08;;;;;;;20.67;55.76;96261.69;5034672;28;20060;-62
2023/06/09 04:36:56;;;;;;;4.15;2.50;;;;;;;20.74;55.14;96254.06;5034762;28;20049;-62
2023/06/09 04:39:25;;;;;;;6.38;2.40;;;;;;;20.95;55.53;96254.91;5034646;28;20399;-62
2023/06/09 04:41:54;;;;;;;3.22;2.58;;;;;;;21.29;55.33;96261.00;5033754;28;20049;-62
2023/06/09 04:44:22;;;;;;;5.55;2.25;;;;;;;21.56;54.23;96259.56;5034463;28;20491;-62
2023/06/09 04:46:49;;;;;;;2.88;2.10;;;;;;;21.90;54.13;96261.09;5034681;28;20477;-62
2023/06/09 04:49:16;;;;;;;3.20;2.10;;;;;;;22.20;53.33;96268.19;5034629;28;20128;-62
2023/06/09 04:51:48;;;;;;;4.13;2.40;;;;;;;22.44;53.26;96266.94;5034573;28;20088;-59
2023/06/09 04:54:15;;;;;;;2.75;2.42;;;;;;;22.68;52.82;96265.69;5034381;28;20495;-62
2023/06/09 04:56:44;;;;;;;2.88;2.13;;;;;;;22.87;51.88;96266.66;5034265;28;20488;-62
2023/06/09 04:59:12;;;;;;;3.28;2.75;;;;;;;23.06;50.82;96267.63;5034438;28;20049;-62
2023/06/09 05:01:40;;;;;;;3.05;2.38;;;;;;;23.27;49.40;96270.06;5034522;28;20053;-62
2023/06/09 05:04:07;;;;;;;4.72;2.72;;;;;;;23.47;48.41;96270.88;5034652;28;20131;-62
2023/06/09 05:06:36;;;;;;;3.03;2.25;;;;;;;23.72;47.78;96276.53;5034168;28;20487;-62
2023/06/09 05:09:06;;;;;;;4.88;2.40;;;;;;;23.99;48.60;96274.03;5034130;28;20055;-61
2023/06/09 05:11:33;;;;;;;6.22;2.50;;;;;;;24.18;47.18;96267.75;5034145;28;20052;-62
2023/06/09 05:14:00;;;;;;;5.00;2.38;;;;;;;24.34;46.84;96272.44;5034188;28;20049;-62
2023/06/09 05:16:28;;;;;;;3.22;2.38;;;;;;;24.57;46.06;96271.13;5034020;28;20068;-62
2023/06/09 05:18:56;;;;;;;3.60;2.50;;;;;;;24.81;45.90;96267.84;5033803;28;20045;-62
2023/06/09 05:21:25;;;;;;;4.38;2.60;;;;;;;25.00;45.25;96263.31;5033966;28;20454;-62
2023/06/09 05:23:52;;;;;;;7.18;2.75;;;;;;;25.27;45.96;96256.13;5033889;28;20054;-62
2023/06/09 05:26:21;;;;;;;5.88;2.60;;;;;;;25.54;42.74;96254.28;5033841;28;20578;-62
2023/06/09 05:28:48;;;;;;;3.55;2.30;;;;;;;25.85;40.69;96260.94;5033768;28;20553;-62
2023/06/09 05:31:16;;;;;;;4.18;2.15;;;;;;;26.10;44.02;96264.53;5033782;28;20045;-62
2023/06/09 05:33:44;;;;;;;3.63;2.45;;;;;;;26.31;42.56;96265.13;5033692;28;20484;-61
2023/06/09 05:36:12;;;;;;;4.78;2.22;;;;;;;26.41;39.73;96259.63;5033521;28;20054;-61
2023/06/09 05:38:39;;;;;;;4.50;2.67;;;;;;;26.49;40.70;96260.47;5033797;28;20052;-61
2023/06/09 05:41:07;;;;;;;7.72;2.88;;;;;;;26.64;39.49;96257.16;5033488;28;20124;-61
2023/06/09 05:43:36;;;;;;;7.82;2.38;;;;;;;26.82;40.01;96256.13;5033786;28;20053;-62
2023/06/09 05:46:03;;;;;;;5.70;2.40;;;;;;;26.99;39.85;96252.47;5033711;28;20073;-61
2023/06/09 05:48:30;;;;;;;4.47;2.03;;;;;;;27.20;40.13;96255.59;5033416;28;20176;-61
2023/06/09 05:50:58;;;;;;;3.22;1.85;;;;;;;27.37;39.65;96256.41;5033382;28;20077;-61
2023/06/09 05:53:25;;;;;;;5.32;2.53;;;;;;;27.43;38.17;96258.41;5033378;28;20049;-61
2023/06/09 05:55:53;;;;;;;3.80;2.10;;;;;;;27.47;38.30;96254.38;5033303;28;20095;-62
2023/06/09 05:58:20;;;;;;;3.47;2.05;;;;;;;27.65;37.69;96261.41;5033259;28;20052;-61
2023/06/09 06:00:49;;;;;;;6.85;2.30;;;;;;;27.84;37.10;96256.63;5033203;28;20081;-62
2023/06/09 06:03:16;;;;;;;2.28;2.05;;;;;;;27.85;36.69;96258.31;5033310;28;20053;-61
2023/06/09 06:05:42;;;;;;;5.63;2.70;;;;;;;27.90;36.97;96260.47;5033380;28;20053;-61
2023/06/09 06:08:09;;;;;;;3.08;1.90;;;;;;;28.02;37.25;96271.66;5033315;28;20046;-61
2023/06/09 06:10:36;;;;;;;7.95;2.20;;;;;;;28.29;37.30;96264.97;5033347;28;20050;-62
2023/06/09 06:13:04;;;;;;;5.07;2.10;;;;;;;28.39;36.52;96270.16;5033157;28;20049;-61
2023/06/09 06:15:31;;;;;;;4.85;2.20;;;;;;;28.57;37.05;96271.69;5033137;28;20498;-61
2023/06/09 06:17:59;;;;;;;6.68;2.40;;;;;;;28.43;36.65;96270.59;5033129;28;20052;-61
2023/06/09 06:20:27;;;;;;;2.53;1.83;;;;;;;28.17;36.83;96269.06;5033122;28;20081;-61
2023/06/09 06:22:54;;;;;;;2.50;1.90;;;;;;;28.22;37.54;96258.59;5033233;28;20063;-61
2023/06/09 06:25:23;;;;;;;5.00;2.00;;;;;;;28.50;36.94;96263.50;5033114;28;20096;-61
2023/06/09 06:27:50;;;;;;;3.03;1.98;;;;;;;28.74;36.76;96267.00;5033177;28;20454;-62
2023/06/09 06:30:17;;;;;;;6.40;2.78;;;;;;;28.43;36.78;96266.06;5033372;28;20050;-61
2023/06/09 06:32:52;;;;;;;3.25;1.90;;;;;;;28.75;36.43;96266.03;5032817;28;20407;-62
2023/06/09 06:35:25;;;;;;;5.82;1.90;;;;;;;28.86;35.90;96253.97;5033004;28;20092;-61
2023/06/09 06:37:53;;;;;;;4.45;2.33;;;;;;;28.88;37.27;96257.31;5032795;28;20053;-61
2023/06/09 06:40:19;;;;;;;8.85;2.30;;;;;;;29.12;36.27;96255.47;5032845;28;20487;-62
2023/06/09 06:42:47;;;;;;;6.05;2.60;;;;;;;29.16;35.66;96256.75;5032735;28;20060;-62
2023/06/09 06:45:14;;;;;;;3.90;2.67;;;;;;;29.07;37.08;96263.25;5032849;28;20049;-61
2023/06/09 06:47:42;;;;;;;2.97;2.05;;;;;;;29.23;36.32;96260.38;5033012;28;20041;-62
2023/06/09 06:50:10;;;;;;;6.00;2.40;;;;;;;29.36;36.34;96261.63;5032818;28;20091;-61
2023/06/09 06:52:39;;;;;;;5.63;2.10;;;;;;;29.56;35.34;96253.03;5032783;28;20549;-61
2023/06/09 06:55:08;;;;;;;3.75;2.30;;;;;;;29.59;35.24;96247.25;5032729;28;20507;-61
2023/06/09 06:57:35;;;;;;;4.93;2.55;;;;;;;29.45;35.75;96251.59;5032721;28;20046;-61
2023/06/09 07:00:07;;;;;;;6.07;2.70;;;;;;;29.40;35.58;96257.53;5032685;28;20045;-62
2023/06/09 07:02:35;;;;;;;8.00;2.58;;;;;;;29.37;35.80;96258.75;5032459;28;20496;-61
2023/06/09 07:05:02;;;;;;;5.90;2.20;;;;;;;29.18;35.37;96262.81;5033061;28;20531;-61
2023/06/09 07:07:29;;;;;;;3.88;2.30;;;;;;;29.05;37.34;96258.06;5036316;28;20049;-62
2023/06/09 07:09:58;;;;;;;4.80;2.25;;;;;;;29.05;36.53;96252.69;5036298;28;20087;-62
2023/06/09 07:12:25;;;;;;;5.78;2.17;;;;;;;28.70;35.65;96258.50;5036248;28;20049;-61
2023/06/09 07:14:52;;;;;;;7.57;2.78;;;;;;;28.84;37.82;96247.94;5036629;28;20155;-61
2023/06/09 07:17:19;;;;;;;4.50;2.58;;;;;;;28.91;37.63;96248.88;5036140;28;20049;-61
2023/06/09 07:19:45;;;;;;;3.08;2.60;;;;;;;28.95;37.64;96247.53;5036172;28;20045;-62
2023/06/09 07:22:12;;;;;;;3.75;2.22;;;;;;;29.01;37.73;96245.97;5035905;28;20132;-61
2023/06/09 07:24:40;;;;;;;6.38;2.70;;;;;;;28.97;36.71;96244.66;5036041;28;20049;-62
2023/06/09 07:27:09;;;;;;;7.78;2.50;;;;;;;29.16;38.74;96245.19;5036085;28;20416;-61
2023/06/09 07:29:37;;;;;;;6.28;2.67;;;;;;;29.30;37.52;96240.81;5036133;28;20120;-62
2023/06/09 07:32:05;;;;;;;4.85;2.60;;;;;;;29.43;36.41;96250.97;5035891;28;20064;-62
2023/06/09 07:34:33;;;;;;;6.90;2.42;;;;;;;29.60;36.28;96247.09;5035746;28;20111;-62
2023/06/09 07:37:05;;;;;;;5.43;2.83;;;;;;;29.61;36.36;96247.91;5035818;28;20407;-63
2023/06/09 07:39:32;;;;;;;6.63;3.33;;;;;;;29.51;35.29;96240.94;5035766;28;20084;-62
2023/06/09 07:41:59;;;;;;;9.80;3.50;;;;;;;29.17;35.26;96236.91;5035666;28;20045;-62
2023/06/09 07:44:28;;;;;;;10.77;3.58;;;;;;;28.96;37.51;96237.63;5035900;28;20049;-60
2023/06/09 07:46:55;;;;;;;6.22;2.97;;;;;;;28.40;35.61;96238.69;5035739;28;20132;-61
2023/06/09 07:49:22;;;;;;;5.15;3.13;;;;;;;27.70;39.10;96234.03;5035553;28;20100;-61
2023/06/09 07:51:50;;;;;;;8.48;3.35;;;;;;;27.78;39.02;96244.72;5035550;28;20085;-63
2023/06/09 07:54:17;;;;;;;8.65;3.75;;;;;;;27.55;38.23;96232.03;5035671;28;20099;-62
2023/06/09 07:56:48;;;;;;;6.32;3.60;;;;;;;27.67;37.80;96239.75;5035464;28;20061;-62
2023/06/09 07:59:16;;;;;;;8.73;3.38;;;;;;;26.87;38.63;96232.31;5035455;28;20448;-62
2023/06/09 08:01:45;;;;;;;10.55;3.50;;;;;;;26.80;39.83;96232.16;5035329;28;20563;-62
2023/06/09 08:04:12;;;;;;;7.95;3.58;;;;;;;26.69;40.24;96232.47;5035354;28;20137;-62
2023/06/09 08:06:39;;;;;;;5.75;3.33;;;;;;;26.11;39.91;96235.91;5035623;28;20099;-62
2023/06/09 08:09:06;;;;;;;7.85;3.30;;;;;;;25.77;41.56;96244.84;5035226;28;20046;-62
2023/06/09 08:11:33;;;;;;;4.68;3.03;;;;;;;25.30;41.54;96241.59;5035237;28;20125;-62
2023/06/09 08:14:00;;;;;;;7.43;3.33;;;;;;;25.02;42.14;96241.75;5035325;28;20049;-62
2023/06/09 08:16:27;;;;;;;7.97;3.40;;;;;;;24.58;43.84;96241.56;5034345;28;20053;-62
2023/06/09 08:18:55;;;;;;;9.00;3.00;;;;;;;24.64;45.67;96248.13;5034712;28;20385;-62
2023/06/09 08:21:23;;;;;;;8.52;3.28;;;;;;;24.98;43.17;96244.75;5035226;28;20503;-61
2023/06/09 08:23:50;;;;;;;4.43;2.88;;;;;;;25.33;42.48;96249.31;5034883;28;20053;-62
2023/06/09 08:26:17;;;;;;;5.45;3.20;;;;;;;25.73;42.28;96253.22;5035279;28;20049;-62
2023/06/09 08:28:45;;;;;;;4.10;2.90;;;;;;;25.91;42.48;96252.25;5035000;28;20060;-62
2023/06/09 08:31:12;;;;;;;5.28;3.10;;;;;;;26.15;44.08;96250.66;5035077;28;20045;-62
2023/06/09 08:33:39;;;;;;;7.65;2.85;;;;;;;26.49;43.05;96249.75;5034759;28;20472;-62
2023/06/09 08:36:09;;;;;;;5.65;2.63;;;;;;;26.84;43.10;96252.28;5034788;28;20041;-62
2023/06/09 08:38:36;;;;;;;3.33;2.60;;;;;;;27.10;40.50;96245.91;5034658;28;20052;-63
2023/06/09 08:41:07;;;;;;;7.50;2.53;;;;;;;27.42;40.34;96250.53;5034651;28;20107;-63
2023/06/09 08:43:35;;;;;;;6.93;2.55;;;;;;;27.68;41.88;96246.78;5034572;28;20053;-63
2023/06/09 08:46:05;;;;;;;4.35;2.60;;;;;;;27.93;40.79;96249.38;5034618;28;20053;-63
2023/06/09 08:48:33;;;;;;;3.67;2.38;;;;;;;27.96;40.82;96246.34;5034565;28;20095;-63
2023/06/09 08:51:01;;;;;;;4.95;2.35;;;;;;;28.08;38.68;96242.22;5034505;28;20480;-63
2023/06/09 08:53:31;;;;;;;6.47;2.42;;;;;;;28.24;39.86;96243.97;5034500;28;20045;-62
2023/06/09 08:55:59;;;;;;;8.17;2.20;;;;;;;28.30;38.61;96236.25;5034421;28;20053;-62
2023/06/09 08:58:28;;;;;;;7.70;2.67;;;;;;;28.09;36.60;96235.84;5034388;28;20064;-63
2023/06/09 09:00:55;;;;;;;4.85;2.28;;;;;;;27.73;40.15;96234.53;5034238;28;20069;-63
2023/06/09 09:03:23;;;;;;;6.75;2.47;;;;;;;27.54;39.86;96234.91;5034234;28;20057;-63
2023/06/09 09:05:50;;;;;;;5.70;2.22;;;;;;;27.46;40.18;96236.59;5034315;28;20049;-61
2023/06/09 09:08:20;;;;;;;6.65;2.20;;;;;;;27.58;39.09;96222.78;5034190;28;20404;-61
2023/06/09 09:10:49;;;;;;;4.32;2.30;;;;;;;27.64;41.05;96227.47;5034063;28;20076;-61
2023/06/09 09:13:18;;;;;;;7.05;2.28;;;;;;;27.70;37.68;96225.97;5033948;28;20049;-61
2023/06/09 09:15:49;;;;;;;4.22;2.35;;;;;;;27.80;40.03;96228.41;5033983;28;20049;-61
2023/06/09 09:18:17;;;;;;;4.55;2.40;;;;;;;27.47;38.57;96230.22;5034141;28;20128;-62
2023/06/09 09:20:45;;;;;;;4.50;2.40;;;;;;;27.22;38.77;96222.25;5033890;28;20476;-62
2023/06/09 09:23:12;;;;;;;8.05;2.83;;;;;;;27.07;38.49;96216.72;5033883;28;20502;-61
2023/06/09 09:25:40;;;;;;;8.35;2.50;;;;;;;26.83;41.54;96222.94;5033922;28;20132;-61
2023/06/09 09:28:10;;;;;;;4.32;2.25;;;;;;;26.32;40.27;96214.06;5033447;28;20049;-61
2023/06/09 09:30:44;;;;;;;;;;;;;;;26.31;40.48;96225.75;5034149;28;20049;-61
2023/06/09 09:33:12;;;;;;;5.10;2.60;;;;;;;26.26;43.71;96212.00;5033773;28;19921;-61
2023/06/09 09:35:39;;;;;;;4.47;2.47;;;;;;;26.31;42.58;96214.22;5033621;28;20057;-61
2023/06/09 09:38:12;;;;;;;4.60;2.42;;;;;;;26.07;38.95;96215.81;5033918;28;20049;-61
2023/06/09 09:40:47;;;;;;;5.35;2.63;;;;;;;25.91;39.91;96211.28;5033625;28;20053;-61
2023/06/09 09:43:16;;;;;;;6.57;2.50;;;;;;;25.85;40.91;96207.38;5033384;28;20083;-61
2023/06/09 09:45:45;;;;;;;4.17;2.33;;;;;;;25.96;41.20;96206.25;5033600;28;20053;-62
2023/06/09 09:48:13;;;;;;;4.20;2.58;;;;;;;25.78;41.84;96206.34;5033515;28;20103;-61
2023/06/09 09:50:43;;;;;;;6.15;2.65;;;;;;;25.68;41.47;96209.19;5033509;28;20081;-61
2023/06/09 09:53:11;;;;;;;17.75;5.13;;;;;;;25.69;43.62;96194.78;5033478;28;20050;-63
2023/06/09 09:55:39;;;;;;;7.05;2.50;;;;;;;25.67;41.64;96196.81;5033423;28;20084;-62
2023/06/09 09:58:08;;;;;;;10.20;2.80;;;;;;;25.77;44.60;96185.94;5033805;28;20053;-61
2023/06/09 10:00:39;;;;;;;6.40;2.35;;;;;;;26.14;43.96;96190.03;5033261;28;20104;-61
2023/06/09 10:03:08;;;;;;;5.90;2.38;;;;;;;26.23;41.20;96188.22;5033050;28;20060;-61
2023/06/09 10:05:39;;;;;;;5.50;2.50;;;;;;;26.17;41.62;96186.19;5033308;28;20104;-61
2023/06/09 10:08:07;;;;;;;9.32;3.20;;;;;;;26.51;41.87;96184.41;5033043;28;20286;-63
2023/06/09 10:10:35;;;;;;;5.70;2.22;;;;;;;26.52;38.81;96181.56;5033209;28;20376;-62
2023/06/09 10:13:03;;;;;;;3.08;2.72;;;;;;;26.24;39.77;96177.31;5033172;28;20045;-62
2023/06/09 10:15:32;;;;;;;5.35;2.72;;;;;;;25.96;40.63;96179.47;5033166;28;20091;-62
2023/06/09 10:18:01;;;;;;;4.38;2.72;;;;;;;26.03;40.08;96183.16;5033257;28;20104;-62
2023/06/09 10:20:29;;;;;;;4.90;3.08;;;;;;;25.78;39.40;96176.91;5033159;28;20046;-61
2023/06/09 10:22:56;;;;;;;7.30;3.20;;;;;;;25.88;40.31;96171.41;5033009;28;20080;-63
2023/06/09 10:25:26;;;;;;;3.83;2.58;;;;;;;25.88;40.49;96174.91;5033029;28;20542;-62
2023/06/09 10:27:53;;;;;;;5.68;2.63;;;;;;;26.14;40.46;96173.13;5033334;28;20107;-63
2023/06/09 10:30:21;;;;;;;3.15;2.70;;;;;;;26.46;39.26;96169.66;5032944;28;20579;-61
2023/06/09 10:32:57;;;;;;;3.10;2.40;;;;;;;26.53;38.73;96160.94;5032986;28;20053;-62
2023/06/09 10:35:29;;;;;;;3.45;2.45;;;;;;;26.39;38.43;96167.81;5032826;28;20059;-62
2023/06/09 10:37:58;;;;;;;3.88;2.58;;;;;;;26.44;40.53;96155.59;5032896;28;20491;-63
2023/06/09 10:40:32;;;;;;;4.70;2.75;;;;;;;26.20;41.04;96167.94;5033902;28;20061;-62
2023/06/09 10:43:20;;;;;;;3.85;3.00;;;;;;;25.95;40.90;96169.75;5036860;28;20045;-62
2023/06/09 10:45:52;;;;;;;3.90;2.63;;;;;;;26.16;40.51;96176.47;5037071;28;20077;-62
2023/06/09 10:48:41;;;;;;;5.13;2.90;;;;;;;26.51;41.24;96160.28;5036878;28;20514;-61
2023/06/09 10:51:41;;;;;;;7.32;2.60;;;;;;;26.60;41.10;96156.56;5036698;28;20148;-63
2023/06/09 10:54:24;;;;;;;5.38;2.83;;;;;;;26.57;41.65;96163.13;5036713;28;20060;-62
2023/06/09 10:56:54;;;;;;;3.10;2.40;;;;;;;26.69;39.12;96163.59;5036690;28;20045;-61
2023/06/09 11:00:00;;;;;;;8.35;2.60;;;;;;;26.51;39.13;96160.28;5036617;28;20076;-62
2023/06/09 11:02:28;;;;;;;4.90;2.70;;;;;;;26.55;39.15;96158.94;5036774;28;20045;-63
2023/06/09 11:04:55;;;;;;;6.72;2.83;;;;;;;26.71;41.28;96153.56;5036384;28;20046;-62
2023/06/09 11:07:26;;;;;;;7.60;3.45;;;;;;;26.58;40.28;96153.22;5036303;28;20060;-62
2023/06/09 11:10:11;;;;;;;;;;;;;;;26.50;41.84;96151.38;5036804;28;20049;-62
2023/06/09 11:12:45;;;;;;;3.60;2.78;;;;;;;26.72;41.84;96155.22;5036419;28;19964;-62
2023/06/09 11:15:15;;;;;;;6.07;2.55;;;;;;;26.78;39.77;96144.84;5036679;28;20228;-62
2023/06/09 11:17:44;;;;;;;5.60;3.03;;;;;;;26.93;40.27;96150.31;5036330;28;20395;-63
2023/06/09 11:20:14;;;;;;;6.55;2.42;;;;;;;26.96;39.09;96152.66;5036184;28;20057;-61
2023/06/09 11:23:04;;;;;;;3.60;2.63;;;;;;;26.65;42.56;96151.53;5036167;28;20056;-61
2023/06/09 11:25:35;;;;;;;4.30;2.72;;;;;;;26.47;41.61;96136.50;5036186;28;20451;-61
2023/06/09 11:28:20;;;;;;;4.65;2.55;;;;;;;26.55;41.08;96140.16;5036078;28;20128;-61
2023/06/09 11:31:08;;;;;;;6.13;2.92;;;;;;;26.44;40.45;96131.47;5036112;28;20085;-62
2023/06/09 11:33:49;;;;;;;5.22;2.75;;;;;;;26.52;38.95;96129.78;5035966;28;20061;-62
2023/06/09 11:36:21;;;;;;;8.40;2.85;;;;;;;26.52;38.98;96135.13;5035796;28;20054;-63
2023/06/09 11:38:51;;;;;;;8.02;3.38;;;;;;;26.72;42.06;96123.03;5035823;28;20049;-62
2023/06/09 11:41:24;;;;;;;7.88;2.75;;;;;;;26.96;39.95;96128.50;5035815;28;20052;-62
2023/06/09 11:43:57;;;;;;;10.27;2.88;;;;;;;27.11;41.23;96125.97;5035746;28;20060;-62